createdAt,value
2019-02-22T00:00:59.695Z,75.32
2019-02-22T00:05:54.280Z,74.32
2019-02-22T00:10:48.881Z,73.70
2019-02-22T00:15:43.482Z,73.81
2019-02-22T00:20:38.079Z,73.81
2019-02-22T00:25:32.673Z,74.14
2019-02-22T00:30:27.243Z,74.40
2019-02-22T00:35:21.913Z,74.38
2019-02-22T00:40:16.511Z,74.33
2019-02-22T00:45:11.177Z,74.40
2019-02-22T00:50:06.674Z,74.37
2019-02-22T00:55:01.281Z,75.22
2019-02-22T00:59:55.845Z,75.80
2019-02-22T01:04:50.451Z,76.42
2019-02-22T01:09:45.044Z,77.14
2019-02-22T01:14:39.625Z,77.91
2019-02-22T01:19:34.207Z,78.81
2019-02-22T01:24:28.806Z,78.94
2019-02-22T01:29:23.403Z,78.88
2019-02-22T01:34:18.001Z,79.54
2019-02-22T01:39:12.663Z,80.13
2019-02-22T01:44:10.286Z,80.44
2019-02-22T01:49:04.881Z,80.33
2019-02-22T01:53:59.458Z,80.08
2019-02-22T01:58:54.036Z,79.94
2019-02-22T02:03:48.628Z,80.03
2019-02-22T02:08:43.218Z,79.29
2019-02-22T02:13:37.809Z,79.93
2019-02-22T02:18:32.406Z,79.12
2019-02-22T02:23:26.996Z,79.19
2019-02-22T02:28:21.598Z,80.06
2019-02-22T02:33:16.189Z,80.04
2019-02-22T02:38:10.782Z,80.42
2019-02-22T02:43:05.439Z,80.83
2019-02-22T02:48:00.025Z,80.87
2019-02-22T02:52:54.619Z,80.72
2019-02-22T02:57:49.211Z,80.59
2019-02-22T03:02:43.804Z,81.30
2019-02-22T03:07:40.032Z,79.75
2019-02-22T03:12:34.623Z,79.02
2019-02-22T03:17:29.225Z,78.73
2019-02-22T03:22:23.818Z,78.91
2019-02-22T03:27:18.414Z,79.75
2019-02-22T03:32:13.011Z,79.52
2019-02-22T03:37:07.596Z,80.35
2019-02-22T03:42:02.206Z,79.88
2019-02-22T03:46:56.808Z,79.18
2019-02-22T03:51:51.415Z,79.41
2019-02-22T03:56:46.078Z,80.23
2019-02-22T04:01:40.671Z,80.02
2019-02-22T04:06:35.273Z,80.40
2019-02-22T04:11:29.849Z,81.05
2019-02-22T04:16:24.451Z,81.98
2019-02-22T04:21:19.041Z,82.78
2019-02-22T04:26:13.623Z,82.59
2019-02-22T04:31:08.210Z,82.46
2019-02-22T04:36:02.804Z,82.11
2019-02-22T04:40:57.389Z,82.09
2019-02-22T04:45:51.990Z,82.02
2019-02-22T04:50:46.736Z,83.02
2019-02-22T04:55:41.350Z,83.60
2019-02-22T05:00:35.917Z,83.87
2019-02-22T05:05:30.602Z,83.85
2019-02-22T05:10:25.183Z,83.81
2019-02-22T05:15:19.840Z,83.79
2019-02-22T05:20:14.434Z,83.42
2019-02-22T05:25:09.147Z,83.44
2019-02-22T05:30:03.803Z,84.00
2019-02-22T05:34:58.406Z,83.76
2019-02-22T05:39:53.010Z,83.70
2019-02-22T05:44:47.583Z,83.55
2019-02-22T05:49:42.176Z,82.22
2019-02-22T05:54:36.838Z,82.14
2019-02-22T05:59:31.442Z,82.22
2019-02-22T06:04:26.034Z,81.53
2019-02-22T06:09:20.632Z,81.23
2019-02-22T06:14:15.214Z,82.87
2019-02-22T06:19:09.807Z,82.91
2019-02-22T06:24:04.472Z,82.75
2019-02-22T06:28:59.049Z,82.01
2019-02-22T06:33:53.644Z,81.84
2019-02-22T06:38:48.428Z,81.74
2019-02-22T06:43:42.987Z,82.00
2019-02-22T06:48:37.581Z,82.78
2019-02-22T06:53:32.182Z,83.57
2019-02-22T06:58:26.762Z,83.56
2019-02-22T07:03:22.429Z,82.73
2019-02-22T07:08:22.869Z,82.74
2019-02-22T07:13:17.726Z,82.39
2019-02-22T07:18:13.687Z,82.45
2019-02-22T07:23:08.298Z,82.10
2019-02-22T07:28:03.460Z,81.49
2019-02-22T07:33:08.257Z,80.97
2019-02-22T07:38:04.656Z,79.77
2019-02-22T07:43:08.101Z,79.66
2019-02-22T07:48:00.070Z,79.15
2019-02-22T07:52:56.555Z,78.46
2019-02-22T07:57:52.825Z,77.66
2019-02-22T08:02:47.471Z,76.95
2019-02-22T08:07:45.427Z,78.10
2019-02-22T08:12:40.266Z,78.11
2019-02-22T08:17:34.881Z,76.29
2019-02-22T08:22:29.465Z,76.15
2019-02-22T08:27:24.096Z,74.76
2019-02-22T08:32:25.275Z,73.57
2019-02-22T08:37:20.168Z,71.26
2019-02-22T08:42:15.096Z,70.59
2019-02-22T08:47:09.729Z,70.96
2019-02-22T08:52:04.439Z,70.57
2019-02-22T08:57:03.215Z,74.95
2019-02-22T09:02:02.908Z,75.37
2019-02-22T09:06:57.797Z,76.44
2019-02-22T09:11:52.383Z,77.67
2019-02-22T09:16:47.065Z,78.39
2019-02-22T09:21:41.660Z,77.70
2019-02-22T09:26:37.418Z,77.46
2019-02-22T09:31:32.061Z,78.52
2019-02-22T09:36:26.791Z,78.27
2019-02-22T09:41:21.391Z,78.86
2019-02-22T09:46:16.260Z,78.81
2019-02-22T09:51:11.137Z,78.64
2019-02-22T09:56:05.746Z,77.41
2019-02-22T10:01:00.340Z,76.96
2019-02-22T10:05:54.963Z,76.26
2019-02-22T10:10:49.786Z,74.97
2019-02-22T10:15:44.520Z,73.12
2019-02-22T10:20:39.130Z,72.41
2019-02-22T10:25:34.490Z,71.04
2019-02-22T10:30:29.391Z,69.68
2019-02-22T10:35:23.997Z,68.61
2019-02-22T10:40:18.695Z,68.15
2019-02-22T10:45:13.422Z,65.70
2019-02-22T10:50:09.930Z,65.21
2019-02-22T10:55:07.382Z,64.27
2019-02-22T11:00:02.382Z,63.48
2019-02-22T11:04:57.184Z,62.56
2019-02-22T11:09:51.906Z,62.32
2019-02-22T11:14:46.507Z,61.69
2019-02-22T11:19:41.797Z,61.36
2019-02-22T11:24:36.387Z,60.79
2019-02-22T11:29:30.985Z,60.81
2019-02-22T11:34:25.669Z,60.89
2019-02-22T11:39:22.115Z,61.66
2019-02-22T11:44:16.734Z,62.65
2019-02-22T11:49:11.361Z,63.76
2019-02-22T11:54:05.978Z,64.01
2019-02-22T11:59:00.558Z,63.78
2019-02-22T12:03:55.178Z,63.73
2019-02-22T12:08:49.777Z,62.63
2019-02-22T12:13:44.431Z,61.21
2019-02-22T12:18:39.104Z,61.40
2019-02-22T12:23:33.697Z,59.96
2019-02-22T12:28:28.302Z,59.47
2019-02-22T12:33:22.936Z,59.97
2019-02-22T12:38:19.458Z,59.89
2019-02-22T12:43:14.001Z,60.20
2019-02-22T12:48:08.643Z,60.08
2019-02-22T12:53:03.225Z,59.40
2019-02-22T12:57:57.877Z,59.70
2019-02-22T13:03:01.513Z,60.43
2019-02-22T13:07:52.426Z,60.14
2019-02-22T13:12:46.159Z,59.29
2019-02-22T13:17:40.908Z,58.87
2019-02-22T13:22:35.595Z,60.37
2019-02-22T13:27:36.266Z,60.54
2019-02-22T13:32:32.402Z,58.44
2019-02-22T13:37:27.054Z,59.21
2019-02-22T13:42:21.728Z,60.60
2019-02-22T13:47:16.823Z,63.83
2019-02-22T13:52:11.635Z,66.10
2019-02-22T13:57:06.301Z,67.41
2019-02-22T14:02:00.892Z,68.43
2019-02-22T14:06:55.539Z,67.86
2019-02-22T14:11:50.196Z,67.40
2019-02-22T14:16:44.801Z,67.55
2019-02-22T14:21:39.413Z,67.08
2019-02-22T14:26:34.021Z,65.86
2019-02-22T14:31:28.649Z,65.22
2019-02-22T14:36:23.364Z,65.44
2019-02-22T14:41:17.909Z,66.64
2019-02-22T14:46:12.591Z,66.42
2019-02-22T14:51:07.651Z,66.25
2019-02-22T14:56:02.336Z,67.17
2019-02-22T15:00:57.151Z,67.46
2019-02-22T15:05:51.773Z,68.18
2019-02-22T15:10:48.125Z,67.99
2019-02-22T15:16:03.639Z,68.35
2019-02-22T15:20:56.995Z,69.09
2019-02-22T15:25:51.770Z,69.58
2019-02-22T15:30:46.432Z,69.17
2019-02-22T15:35:41.121Z,69.48
2019-02-22T15:40:35.714Z,69.98
2019-02-22T15:45:30.428Z,70.75
2019-02-22T15:50:25.136Z,71.04
2019-02-22T15:55:19.696Z,71.44
2019-02-22T16:00:31.100Z,72.31
2019-02-22T16:05:30.300Z,74.11
2019-02-22T16:10:25.187Z,74.83
2019-02-22T16:15:20.129Z,75.52
2019-02-22T16:20:15.087Z,76.11
2019-02-22T16:25:19.143Z,75.96
2019-02-22T16:30:12.847Z,76.23
2019-02-22T16:35:07.766Z,75.85
2019-02-22T16:40:02.359Z,75.31
2019-02-22T16:44:56.953Z,75.20
2019-02-22T16:49:51.565Z,75.13
2019-02-22T16:54:46.166Z,75.74
2019-02-22T16:59:40.768Z,76.03
2019-02-22T17:04:35.370Z,75.77
2019-02-22T17:09:30.014Z,75.55
2019-02-22T17:14:24.614Z,75.86
2019-02-22T17:19:19.202Z,76.13
2019-02-22T17:24:13.801Z,76.41
2019-02-22T17:29:08.398Z,76.84
2019-02-22T17:34:02.980Z,76.99
2019-02-22T17:38:57.561Z,77.37
2019-02-22T17:43:52.151Z,77.35
2019-02-22T17:48:47.086Z,77.17
2019-02-22T17:53:41.845Z,77.54
2019-02-22T17:58:36.442Z,77.75
2019-02-22T18:03:31.034Z,77.91
2019-02-22T18:08:25.622Z,78.21
2019-02-22T18:13:20.215Z,78.39
2019-02-22T18:18:16.099Z,78.77
2019-02-22T18:23:10.680Z,79.02
2019-02-22T18:28:05.265Z,79.53
2019-02-22T18:32:59.855Z,79.92
2019-02-22T18:37:54.440Z,80.58
2019-02-22T18:42:49.062Z,80.99
2019-02-22T18:47:43.660Z,81.20
2019-02-22T18:52:38.386Z,81.25
2019-02-22T18:57:33.002Z,81.54
2019-02-22T19:02:27.589Z,82.18
2019-02-22T19:07:22.190Z,82.09
2019-02-22T19:12:16.782Z,81.86
2019-02-22T19:17:11.380Z,82.22
2019-02-22T19:22:05.967Z,82.08
2019-02-22T19:27:00.550Z,82.10
2019-02-22T19:31:55.149Z,82.72
2019-02-22T19:36:49.748Z,83.51
2019-02-22T19:41:44.331Z,83.59
2019-02-22T19:46:38.925Z,84.01
2019-02-22T19:51:33.512Z,84.68
2019-02-22T19:56:28.121Z,84.23
2019-02-22T20:01:22.730Z,84.63
2019-02-22T20:06:17.336Z,84.66
2019-02-22T20:11:11.928Z,84.43
2019-02-22T20:16:06.526Z,83.03
2019-02-22T20:21:01.119Z,83.90
2019-02-22T20:25:55.712Z,84.30
2019-02-22T20:30:50.316Z,82.14
2019-02-22T20:35:44.926Z,79.96
2019-02-22T20:40:39.586Z,78.57
2019-02-22T20:45:34.252Z,79.22
2019-02-22T20:50:28.837Z,78.88
2019-02-22T20:55:23.434Z,78.85
2019-02-22T21:00:27.280Z,78.22
2019-02-22T21:05:21.925Z,78.14
2019-02-22T21:10:21.848Z,78.18
2019-02-22T21:15:16.512Z,78.05
2019-02-22T21:20:20.569Z,77.96
2019-02-22T21:25:15.311Z,78.37
2019-02-22T21:30:14.348Z,78.31
2019-02-22T21:35:10.838Z,78.50
2019-02-22T21:40:08.039Z,78.06
2019-02-22T21:45:02.879Z,78.20
2019-02-22T21:49:57.479Z,78.63
2019-02-22T21:54:52.059Z,78.73
2019-02-22T21:59:46.662Z,79.21
2019-02-22T22:04:41.238Z,79.69
2019-02-22T22:09:35.846Z,80.18
2019-02-22T22:14:30.468Z,80.37
2019-02-22T22:19:25.047Z,81.20
2019-02-22T22:24:19.643Z,81.15
2019-02-22T22:29:14.247Z,81.64
2019-02-22T22:34:08.848Z,82.69
2019-02-22T22:39:03.931Z,82.98
2019-02-22T22:43:58.540Z,83.64
2019-02-22T22:48:53.135Z,83.85
2019-02-22T22:53:47.729Z,83.72
2019-02-22T22:58:42.303Z,83.31
2019-02-22T23:03:36.974Z,83.70
2019-02-22T23:08:31.565Z,84.40
2019-02-22T23:13:26.430Z,84.40
2019-02-22T23:18:21.103Z,84.34
2019-02-22T23:23:15.671Z,85.40
2019-02-22T23:28:10.268Z,85.99
2019-02-22T23:33:04.992Z,85.75
2019-02-22T23:37:59.619Z,85.46
2019-02-22T23:42:54.282Z,87.13
2019-02-22T23:47:48.853Z,87.04
2019-02-22T23:52:43.455Z,86.44
2019-02-22T23:57:38.041Z,84.95
